createdAt,value
2019-05-19T00:01:41.624Z,14.30
2019-05-19T00:04:13.615Z,14.20
2019-05-19T00:06:44.665Z,14.20
2019-05-19T00:09:16.692Z,14.20
2019-05-19T00:11:47.898Z,14.20
2019-05-19T00:14:19.474Z,14.10
2019-05-19T00:16:50.565Z,14.10
2019-05-19T00:19:26.853Z,14.10
2019-05-19T00:21:56.695Z,14.00
2019-05-19T00:24:29.025Z,13.80
2019-05-19T00:26:59.882Z,13.70
2019-05-19T00:29:31.920Z,13.70
2019-05-19T00:32:02.836Z,13.60
2019-05-19T00:34:33.689Z,13.60
2019-05-19T00:37:05.394Z,13.60
2019-05-19T00:39:36.232Z,13.60
2019-05-19T00:42:07.170Z,13.70
2019-05-19T00:44:38.066Z,13.70
2019-05-19T00:47:09.067Z,13.70
2019-05-19T00:49:41.592Z,13.70
2019-05-19T00:52:13.954Z,13.70
2019-05-19T00:54:44.924Z,13.70
2019-05-19T00:57:16.985Z,13.80
2019-05-19T00:59:49.980Z,13.80
2019-05-19T01:02:22.025Z,13.70
2019-05-19T01:04:52.839Z,13.60
2019-05-19T01:07:23.771Z,13.60
2019-05-19T01:09:54.714Z,13.50
2019-05-19T01:12:25.623Z,13.60
2019-05-19T01:14:56.596Z,13.70
2019-05-19T01:17:27.646Z,13.70
2019-05-19T01:19:58.668Z,13.80
2019-05-19T01:22:30.046Z,13.80
2019-05-19T01:25:00.986Z,13.80
2019-05-19T01:27:32.116Z,13.80
2019-05-19T01:30:03.047Z,13.90
2019-05-19T01:32:35.398Z,13.90
2019-05-19T01:35:08.049Z,13.90
2019-05-19T01:37:39.051Z,13.90
2019-05-19T01:40:10.315Z,13.80
2019-05-19T01:42:41.196Z,13.80
2019-05-19T01:45:12.267Z,13.80
2019-05-19T01:47:43.304Z,13.80
2019-05-19T01:50:17.985Z,13.80
2019-05-19T01:52:47.193Z,13.80
2019-05-19T01:55:19.260Z,13.80
2019-05-19T01:57:50.275Z,13.80
2019-05-19T02:00:21.346Z,13.80
2019-05-19T02:02:52.269Z,13.80
2019-05-19T02:05:23.274Z,13.70
2019-05-19T02:07:54.198Z,13.70
2019-05-19T02:10:25.150Z,13.70
2019-05-19T02:12:56.146Z,13.70
2019-05-19T02:15:28.215Z,13.60
2019-05-19T02:18:02.598Z,13.50
2019-05-19T02:20:33.563Z,13.50
2019-05-19T02:23:06.942Z,13.40
2019-05-19T02:25:37.947Z,13.40
2019-05-19T02:28:08.974Z,13.40
2019-05-19T02:30:40.036Z,13.40
2019-05-19T02:33:10.968Z,13.40
2019-05-19T02:35:41.834Z,13.40
2019-05-19T02:38:12.770Z,13.40
2019-05-19T02:40:47.825Z,13.40
2019-05-19T02:43:20.816Z,13.50
2019-05-19T02:45:55.760Z,13.60
2019-05-19T02:48:28.660Z,13.70
2019-05-19T02:51:02.437Z,13.70
2019-05-19T02:53:34.336Z,13.70
2019-05-19T02:56:05.426Z,13.80
2019-05-19T02:58:37.081Z,13.80
2019-05-19T03:01:08.025Z,13.90
2019-05-19T03:03:39.078Z,13.90
2019-05-19T03:06:10.987Z,13.90
2019-05-19T03:08:42.008Z,14.00
2019-05-19T03:11:12.958Z,14.00
2019-05-19T03:13:43.831Z,14.00
2019-05-19T03:16:14.653Z,14.00
2019-05-19T03:18:45.716Z,14.00
2019-05-19T03:21:16.698Z,14.00
2019-05-19T03:23:47.724Z,14.10
2019-05-19T03:26:18.783Z,14.10
2019-05-19T03:28:49.793Z,14.20
2019-05-19T03:31:45.790Z,14.20
2019-05-19T03:34:16.841Z,14.20
2019-05-19T03:36:47.801Z,14.30
2019-05-19T03:39:18.823Z,14.30
2019-05-19T03:41:49.834Z,14.30
2019-05-19T03:44:20.692Z,14.30
2019-05-19T03:46:51.479Z,14.30
2019-05-19T03:49:22.429Z,14.20
2019-05-19T03:51:53.267Z,14.20
2019-05-19T03:54:24.201Z,14.30
2019-05-19T03:56:55.519Z,14.30
2019-05-19T03:59:26.497Z,14.40
2019-05-19T04:01:57.447Z,14.50
2019-05-19T04:04:29.971Z,14.60
2019-05-19T04:07:00.809Z,14.60
2019-05-19T04:09:31.660Z,14.70
2019-05-19T04:12:02.480Z,14.80
2019-05-19T04:14:33.344Z,14.80
2019-05-19T04:17:04.194Z,14.80
2019-05-19T04:19:35.125Z,14.90
2019-05-19T04:22:06.026Z,14.90
2019-05-19T04:24:40.059Z,15.00
2019-05-19T04:27:10.930Z,15.00
2019-05-19T04:29:41.806Z,15.10
2019-05-19T04:32:12.603Z,15.10
2019-05-19T04:34:43.582Z,15.20
2019-05-19T04:37:14.397Z,15.30
2019-05-19T04:39:45.280Z,15.40
2019-05-19T04:42:16.060Z,15.40
2019-05-19T04:44:46.944Z,15.50
2019-05-19T04:47:17.992Z,15.60
2019-05-19T04:50:00.368Z,15.70
2019-05-19T04:52:55.761Z,15.70
2019-05-19T04:55:27.302Z,15.90
2019-05-19T04:58:06.986Z,15.90
2019-05-19T05:00:39.993Z,16.00
2019-05-19T05:03:11.093Z,16.00
2019-05-19T05:05:41.856Z,16.10
2019-05-19T05:08:29.070Z,16.10
2019-05-19T05:10:46.561Z,16.20
2019-05-19T05:13:18.162Z,16.30
2019-05-19T05:15:49.963Z,16.30
2019-05-19T05:18:21.482Z,16.40
2019-05-19T05:20:53.202Z,16.50
2019-05-19T05:23:24.761Z,16.60
2019-05-19T05:25:56.402Z,16.60
2019-05-19T05:28:27.761Z,16.70
2019-05-19T05:30:59.401Z,16.80
2019-05-19T05:33:30.888Z,16.90
2019-05-19T05:36:02.482Z,17.00
2019-05-19T05:38:34.203Z,17.10
2019-05-19T05:41:07.001Z,17.20
2019-05-19T05:43:38.440Z,17.30
2019-05-19T05:46:09.964Z,17.50
2019-05-19T05:48:41.761Z,17.70
2019-05-19T05:51:13.533Z,17.80
2019-05-19T05:53:45.209Z,17.90
2019-05-19T05:56:18.123Z,17.90
2019-05-19T05:58:50.022Z,18.00
2019-05-19T06:01:21.722Z,18.00
2019-05-19T06:03:53.202Z,18.00
2019-05-19T06:06:25.203Z,18.00
2019-05-19T06:08:56.840Z,18.10
2019-05-19T06:11:27.744Z,18.20
2019-05-19T06:13:58.724Z,18.50
2019-05-19T06:16:29.853Z,18.80
2019-05-19T06:19:00.846Z,19.10
2019-05-19T06:21:32.863Z,19.20
2019-05-19T06:24:03.885Z,19.30
2019-05-19T06:26:35.073Z,19.40
2019-05-19T06:29:30.761Z,19.40
2019-05-19T06:32:11.349Z,19.50
2019-05-19T06:34:43.440Z,19.50
2019-05-19T06:37:14.682Z,19.50
2019-05-19T06:39:49.678Z,19.50
2019-05-19T06:42:24.802Z,19.50
2019-05-19T06:44:57.603Z,19.50
2019-05-19T06:47:28.974Z,19.50
2019-05-19T06:50:00.204Z,19.60
2019-05-19T06:52:38.693Z,19.60
2019-05-19T06:55:11.043Z,19.60
2019-05-19T06:57:42.107Z,19.70
2019-05-19T07:00:13.905Z,19.70
2019-05-19T07:02:44.949Z,19.70
2019-05-19T07:05:16.630Z,19.70
2019-05-19T07:07:49.033Z,19.60
2019-05-19T07:10:20.098Z,19.60
2019-05-19T07:12:51.297Z,19.60
2019-05-19T07:15:22.478Z,19.60
2019-05-19T07:17:53.630Z,19.60
2019-05-19T07:20:24.678Z,19.60
2019-05-19T07:22:56.339Z,19.50
2019-05-19T07:25:29.484Z,19.50
2019-05-19T07:28:01.747Z,19.40
2019-05-19T07:30:32.545Z,19.40
2019-05-19T07:33:04.544Z,19.40
2019-05-19T07:35:36.309Z,19.40
2019-05-19T07:38:07.826Z,19.30
2019-05-19T07:40:39.329Z,19.30
2019-05-19T07:43:11.053Z,19.20
2019-05-19T07:45:41.939Z,19.30
2019-05-19T07:48:13.729Z,19.30
2019-05-19T07:50:45.433Z,19.30
2019-05-19T07:53:17.261Z,19.30
2019-05-19T07:55:49.044Z,19.40
2019-05-19T07:58:21.105Z,19.40
2019-05-19T08:00:52.818Z,19.40
2019-05-19T08:03:27.846Z,19.40
2019-05-19T08:05:58.875Z,19.40
2019-05-19T08:08:29.747Z,19.40
2019-05-19T08:11:02.103Z,19.40
2019-05-19T08:13:33.411Z,19.50
2019-05-19T08:16:05.164Z,19.40
2019-05-19T08:18:36.900Z,19.50
2019-05-19T08:21:08.536Z,19.40
2019-05-19T08:23:40.182Z,19.30
2019-05-19T08:26:11.312Z,19.20
2019-05-19T08:28:44.025Z,19.20
2019-05-19T08:31:15.885Z,19.10
2019-05-19T08:33:47.754Z,19.10
2019-05-19T08:36:19.237Z,19.10
2019-05-19T08:38:50.381Z,19.10
2019-05-19T08:41:22.012Z,19.20
2019-05-19T08:43:54.047Z,19.20
2019-05-19T08:46:26.353Z,19.20
2019-05-19T08:48:58.509Z,19.30
2019-05-19T08:51:30.026Z,19.30
2019-05-19T08:54:13.775Z,19.40
2019-05-19T08:56:34.051Z,19.40
2019-05-19T08:59:04.939Z,19.30
2019-05-19T09:01:36.786Z,19.30
2019-05-19T09:04:07.656Z,19.30
2019-05-19T09:06:38.409Z,19.30
2019-05-19T09:09:09.264Z,19.20
2019-05-19T09:11:40.533Z,19.20
2019-05-19T09:14:11.945Z,19.10
2019-05-19T09:16:43.607Z,19.10
2019-05-19T09:19:15.806Z,19.00
2019-05-19T09:21:47.510Z,19.00
2019-05-19T09:24:30.159Z,18.90
2019-05-19T09:26:54.969Z,18.90
2019-05-19T09:29:26.790Z,18.90
2019-05-19T09:31:57.801Z,18.80
2019-05-19T09:34:29.433Z,18.80
2019-05-19T09:37:01.065Z,18.80
2019-05-19T09:39:32.862Z,18.80
2019-05-19T09:42:04.533Z,18.80
2019-05-19T09:44:35.490Z,18.90
2019-05-19T09:47:06.256Z,19.00
2019-05-19T09:49:37.205Z,19.20
2019-05-19T09:52:08.087Z,19.40
2019-05-19T09:54:45.059Z,19.50
2019-05-19T09:57:12.223Z,19.70
2019-05-19T09:59:44.496Z,19.70
2019-05-19T10:02:15.394Z,19.70
2019-05-19T10:04:46.252Z,19.70
2019-05-19T10:07:17.153Z,19.80
2019-05-19T10:10:00.390Z,19.90
2019-05-19T10:12:31.788Z,19.90
2019-05-19T10:15:03.270Z,19.90
2019-05-19T10:17:34.648Z,20.00
2019-05-19T10:20:07.236Z,20.00
2019-05-19T10:22:39.055Z,20.00
2019-05-19T10:25:21.576Z,20.10
2019-05-19T10:27:43.830Z,20.10
2019-05-19T10:30:15.273Z,20.10
2019-05-19T10:32:46.227Z,20.20
2019-05-19T10:35:17.350Z,20.20
2019-05-19T10:37:49.164Z,20.20
2019-05-19T10:40:20.197Z,20.20
2019-05-19T10:42:51.193Z,20.30
2019-05-19T10:45:22.308Z,20.50
2019-05-19T10:47:53.129Z,20.60
2019-05-19T10:50:23.978Z,20.80
2019-05-19T10:52:54.751Z,20.80
2019-05-19T10:55:36.273Z,20.80
2019-05-19T10:57:58.061Z,20.70
2019-05-19T11:00:29.138Z,20.70
2019-05-19T11:02:59.935Z,20.60
2019-05-19T11:05:30.789Z,20.50
2019-05-19T11:08:01.625Z,20.40
2019-05-19T11:10:32.499Z,20.40
2019-05-19T11:13:03.393Z,20.40
2019-05-19T11:15:34.340Z,20.30
2019-05-19T11:18:06.541Z,20.30
2019-05-19T11:20:37.682Z,20.30
2019-05-19T11:23:08.527Z,20.20
2019-05-19T11:25:51.226Z,20.10
2019-05-19T11:28:11.817Z,19.90
2019-05-19T11:30:42.677Z,19.80
2019-05-19T11:33:13.525Z,19.70
2019-05-19T11:35:44.449Z,19.50
2019-05-19T11:38:15.395Z,19.40
2019-05-19T11:40:46.337Z,19.30
2019-05-19T11:43:17.264Z,19.30
2019-05-19T11:45:48.147Z,19.30
2019-05-19T11:48:18.964Z,19.20
2019-05-19T11:50:52.862Z,19.20
2019-05-19T11:53:23.784Z,19.10
2019-05-19T11:56:06.330Z,19.10
2019-05-19T11:58:27.377Z,19.10
2019-05-19T12:00:58.247Z,19.10
2019-05-19T12:03:29.121Z,19.10
2019-05-19T12:05:59.955Z,19.10
2019-05-19T12:08:30.821Z,19.20
2019-05-19T12:11:02.823Z,19.20
2019-05-19T12:13:35.156Z,19.20
2019-05-19T12:16:06.374Z,19.10
2019-05-19T12:18:37.568Z,19.00
2019-05-19T12:21:08.584Z,18.90
2019-05-19T12:23:39.401Z,18.80
2019-05-19T12:26:22.791Z,18.80
2019-05-19T12:28:42.838Z,18.60
2019-05-19T12:31:13.734Z,18.60
2019-05-19T12:33:52.100Z,18.60
2019-05-19T12:36:17.467Z,18.70
2019-05-19T12:38:48.359Z,18.90
2019-05-19T12:41:19.241Z,18.90
2019-05-19T12:43:50.148Z,19.10
2019-05-19T12:46:21.045Z,19.10
2019-05-19T12:49:11.181Z,19.10
2019-05-19T12:51:42.296Z,19.00
2019-05-19T12:54:13.245Z,19.00
2019-05-19T12:56:51.994Z,18.90
2019-05-19T12:59:23.128Z,18.90
2019-05-19T13:01:54.194Z,18.90
2019-05-19T13:04:26.210Z,18.90
2019-05-19T13:06:58.884Z,18.90
2019-05-19T13:09:29.950Z,18.80
2019-05-19T13:12:00.810Z,18.90
2019-05-19T13:14:31.643Z,19.00
2019-05-19T13:17:05.649Z,19.10
2019-05-19T13:19:37.209Z,19.10
2019-05-19T13:22:09.514Z,19.10
2019-05-19T13:24:41.252Z,19.00
2019-05-19T13:27:14.160Z,19.00
2019-05-19T13:29:45.866Z,18.90
2019-05-19T13:32:17.754Z,18.90
2019-05-19T13:34:50.097Z,18.90
2019-05-19T13:37:22.430Z,18.90
2019-05-19T13:39:54.287Z,18.90
2019-05-19T13:42:29.137Z,18.90
2019-05-19T13:45:03.963Z,18.90
2019-05-19T13:47:38.191Z,19.00
2019-05-19T13:50:11.527Z,19.10
2019-05-19T13:52:43.324Z,19.20
2019-05-19T13:55:32.004Z,19.40
2019-05-19T13:58:06.239Z,19.50
2019-05-19T14:00:53.718Z,19.70
2019-05-19T14:03:36.941Z,19.70
2019-05-19T14:06:08.620Z,19.90
2019-05-19T14:08:46.680Z,19.90
2019-05-19T14:11:20.025Z,20.00
2019-05-19T14:13:52.016Z,20.00
2019-05-19T14:16:25.022Z,20.00
2019-05-19T14:18:58.155Z,20.10
2019-05-19T14:21:32.278Z,20.20
2019-05-19T14:24:07.602Z,20.30
2019-05-19T14:26:40.480Z,20.40
2019-05-19T14:29:11.618Z,20.60
2019-05-19T14:31:43.244Z,20.60
2019-05-19T14:34:15.037Z,20.60
2019-05-19T14:36:46.716Z,20.40
2019-05-19T14:39:18.397Z,20.20
2019-05-19T14:41:53.956Z,20.00
2019-05-19T14:44:25.807Z,19.90
2019-05-19T14:46:58.039Z,19.70
2019-05-19T14:49:29.717Z,19.60
2019-05-19T14:52:01.395Z,19.40
2019-05-19T14:54:32.213Z,19.30
2019-05-19T14:57:03.758Z,19.30
2019-05-19T14:59:35.422Z,19.20
2019-05-19T15:02:06.167Z,19.20
2019-05-19T15:04:38.054Z,19.10
2019-05-19T15:07:09.830Z,19.00
2019-05-19T15:09:40.879Z,19.00
2019-05-19T15:12:11.876Z,19.00
2019-05-19T15:14:43.843Z,19.00
2019-05-19T15:17:15.203Z,19.00
2019-05-19T15:19:52.455Z,19.00
2019-05-19T15:22:25.427Z,19.10
2019-05-19T15:24:57.658Z,19.20
2019-05-19T15:27:32.240Z,19.30
2019-05-19T15:30:13.160Z,19.40
2019-05-19T15:32:38.681Z,19.40
2019-05-19T15:35:16.321Z,19.40
2019-05-19T15:37:59.447Z,19.40
2019-05-19T15:40:36.609Z,19.40
2019-05-19T15:43:07.659Z,19.30
2019-05-19T15:45:38.532Z,19.20
2019-05-19T15:48:09.359Z,19.20
2019-05-19T15:50:40.893Z,19.10
2019-05-19T15:53:11.831Z,19.00
2019-05-19T15:55:43.347Z,18.90
2019-05-19T15:58:16.524Z,18.80
2019-05-19T16:00:46.745Z,18.70
2019-05-19T16:03:18.808Z,18.50
2019-05-19T16:05:50.092Z,18.40
2019-05-19T16:08:20.957Z,18.30
2019-05-19T16:10:51.869Z,18.30
2019-05-19T16:13:34.473Z,18.20
2019-05-19T16:16:06.099Z,18.10
2019-05-19T16:18:36.984Z,18.10
2019-05-19T16:21:12.938Z,18.00
2019-05-19T16:23:56.248Z,17.90
2019-05-19T16:26:27.816Z,17.90
2019-05-19T16:28:59.794Z,17.80
2019-05-19T16:31:30.782Z,17.80
2019-05-19T16:34:01.681Z,17.70
2019-05-19T16:36:32.694Z,17.60
2019-05-19T16:39:04.112Z,17.60
2019-05-19T16:41:36.656Z,17.60
2019-05-19T16:44:07.870Z,17.60
2019-05-19T16:46:38.913Z,17.60
2019-05-19T16:49:09.875Z,17.60
2019-05-19T16:51:40.754Z,17.60
2019-05-19T16:54:16.599Z,17.60
2019-05-19T16:56:47.428Z,17.60
2019-05-19T16:59:18.308Z,17.60
2019-05-19T17:01:50.313Z,17.70
2019-05-19T17:04:21.406Z,17.70
2019-05-19T17:06:52.420Z,17.70
2019-05-19T17:09:23.411Z,17.70
2019-05-19T17:11:54.522Z,17.70
2019-05-19T17:14:25.521Z,17.80
2019-05-19T17:16:56.419Z,17.80
2019-05-19T17:19:35.631Z,17.80
2019-05-19T17:22:14.007Z,17.80
2019-05-19T17:24:52.708Z,17.90
2019-05-19T17:27:25.289Z,17.90
2019-05-19T17:29:56.290Z,17.90
2019-05-19T17:32:27.651Z,17.90
2019-05-19T17:34:58.525Z,17.80
2019-05-19T17:37:29.822Z,17.80
2019-05-19T17:40:01.750Z,17.70
2019-05-19T17:42:36.891Z,17.70
2019-05-19T17:45:07.448Z,17.60
2019-05-19T17:56:14.216Z,17.60
2019-05-19T17:58:46.479Z,17.50
2019-05-19T18:01:17.713Z,17.50
2019-05-19T18:03:49.635Z,17.50
2019-05-19T18:06:20.600Z,17.50
2019-05-19T18:08:51.649Z,17.50
2019-05-19T18:11:24.084Z,17.50
2019-05-19T18:13:55.524Z,17.50
2019-05-19T18:16:27.299Z,17.50
2019-05-19T18:18:58.641Z,17.50
2019-05-19T18:21:29.690Z,17.50
2019-05-19T18:24:01.094Z,17.40
2019-05-19T18:26:32.212Z,17.40
2019-05-19T18:29:03.371Z,17.30
2019-05-19T18:31:34.454Z,17.30
2019-05-19T18:34:05.826Z,17.20
2019-05-19T18:36:37.500Z,17.20
2019-05-19T18:39:09.182Z,17.10
2019-05-19T18:41:40.348Z,17.10
2019-05-19T18:44:11.498Z,17.00
2019-05-19T18:46:42.464Z,17.00
2019-05-19T18:49:13.581Z,16.90
2019-05-19T18:51:44.612Z,16.80
2019-05-19T18:54:15.994Z,16.70
2019-05-19T18:56:47.150Z,16.60
2019-05-19T18:59:18.052Z,16.60
2019-05-19T19:01:49.337Z,16.50
2019-05-19T19:04:20.708Z,16.40
2019-05-19T19:06:51.641Z,16.40
2019-05-19T19:09:22.581Z,16.40
2019-05-19T19:11:53.742Z,16.40
2019-05-19T19:14:27.529Z,16.40
2019-05-19T19:16:58.945Z,16.40
2019-05-19T19:19:40.497Z,16.40
2019-05-19T19:22:11.534Z,16.50
2019-05-19T19:36:08.167Z,16.50
2019-05-19T19:38:42.456Z,16.50
2019-05-19T19:45:42.926Z,16.30
2019-05-19T19:48:24.685Z,16.30
2019-05-19T19:48:34.003Z,16.40
2019-05-19T19:51:19.415Z,16.40
2019-05-19T19:53:52.655Z,16.40
2019-05-19T19:56:24.188Z,16.50
2019-05-19T19:58:55.481Z,16.50
2019-05-19T20:01:26.891Z,16.50
2019-05-19T20:03:58.031Z,16.50
2019-05-19T20:06:29.742Z,16.50
2019-05-19T20:09:00.761Z,16.50
2019-05-19T20:11:33.441Z,16.50
2019-05-19T20:14:04.770Z,16.50
2019-05-19T20:16:38.488Z,16.40
2019-05-19T20:19:09.618Z,16.50
2019-05-19T20:21:43.143Z,16.40
2019-05-19T20:24:14.209Z,16.40
2019-05-19T20:26:45.251Z,16.30
2019-05-19T20:29:16.130Z,16.30
2019-05-19T20:31:47.071Z,16.30
2019-05-19T20:34:17.988Z,16.20
2019-05-19T20:36:49.109Z,16.10
2019-05-19T20:39:20.234Z,16.10
2019-05-19T20:41:51.425Z,16.00
2019-05-19T20:44:22.329Z,15.90
2019-05-19T20:46:53.380Z,15.80
2019-05-19T20:49:24.204Z,15.80
2019-05-19T20:51:55.294Z,15.70
2019-05-19T20:54:26.290Z,15.70
2019-05-19T20:56:57.572Z,15.70
2019-05-19T20:59:29.756Z,15.70
2019-05-19T21:02:00.645Z,15.70
2019-05-19T21:04:32.646Z,15.80
2019-05-19T21:07:03.767Z,15.70
2019-05-19T21:09:34.703Z,15.70
2019-05-19T21:12:05.777Z,15.70
2019-05-19T21:14:36.697Z,15.60
2019-05-19T21:17:07.615Z,15.60
2019-05-19T21:19:38.639Z,15.60
2019-05-19T21:22:09.940Z,15.60
2019-05-19T21:24:40.670Z,15.60
2019-05-19T21:27:11.536Z,15.60
2019-05-19T21:29:42.284Z,15.60
2019-05-19T21:32:13.187Z,15.60
2019-05-19T21:34:43.939Z,15.50
2019-05-19T21:37:14.774Z,15.50
2019-05-19T21:39:45.580Z,15.40
2019-05-19T21:42:16.642Z,15.40
2019-05-19T21:44:48.603Z,15.40
2019-05-19T21:47:19.717Z,15.40
2019-05-19T21:49:50.660Z,15.40
2019-05-19T21:52:21.939Z,15.40
2019-05-19T21:54:52.870Z,15.40
2019-05-19T21:57:23.907Z,15.40
2019-05-19T21:59:54.805Z,15.30
2019-05-19T22:02:33.126Z,15.30
2019-05-19T22:05:06.269Z,15.30
2019-05-19T22:08:07.129Z,15.20
2019-05-19T22:10:38.260Z,15.10
2019-05-19T22:13:09.566Z,15.10
2019-05-19T22:15:40.569Z,15.10
2019-05-19T22:18:12.959Z,15.10
2019-05-19T22:20:44.197Z,15.00
2019-05-19T22:23:15.228Z,15.00
2019-05-19T22:30:33.631Z,15.00
2019-05-19T22:35:29.793Z,15.00
2019-05-19T22:38:00.852Z,15.00
2019-05-19T22:40:31.847Z,14.90
2019-05-19T22:43:02.855Z,15.00
2019-05-19T22:45:34.205Z,15.00
2019-05-19T22:48:15.587Z,14.90
2019-05-19T22:50:47.696Z,14.90
2019-05-19T22:53:18.608Z,14.80
2019-05-19T22:55:49.716Z,14.80
2019-05-19T22:58:20.745Z,14.80
2019-05-19T23:00:52.180Z,14.80
2019-05-19T23:03:23.218Z,14.80
2019-05-19T23:05:54.241Z,14.70
2019-05-19T23:08:25.358Z,14.70
2019-05-19T23:10:56.400Z,14.70
2019-05-19T23:13:27.344Z,14.70
2019-05-19T23:15:58.325Z,14.70
2019-05-19T23:18:29.222Z,14.70
2019-05-19T23:21:03.701Z,14.60
2019-05-19T23:23:55.211Z,14.60
2019-05-19T23:27:02.654Z,14.60
2019-05-19T23:30:40.437Z,14.60
2019-05-19T23:33:24.542Z,14.50
2019-05-19T23:36:19.834Z,14.50
2019-05-19T23:48:07.513Z,14.40
2019-05-19T23:55:04.734Z,14.30
